Ana Sayfa
METAR-TAF:

METAR-TAF

Havaalanları :

Mar del Plata, Arjantin

Enlem: 37-56S, Boylam: 057-35W, yükseklik: 18 m

Güncel hava durumu gözlemi

Rapor saat 08:00 UTC de 13 dakika önce yapıldı.
Rüzgar batı/güneybatıdan 4 kt
Sıcaklık 14°C
Nem 82%
Basınç 1006 hPa
Görüş mesafesi 10 km veya daha fazla
1500 m altında bulut yok ve kümülonimbus yok

METAR: SAZM 250800Z 25004KT CAVOK 14/11 Q1006

Saat: 05:13 (08:13 UTC)

Tahmin

Rapor saat 05:00 UTC de 3 saat ve 13 dakika önce yapıldı.
Ayın 25'si saat 06 UTC'den ayın 26'si saat 06 UTC'ye kadar geçerli Tahmin
Rüzgar güneybatıdan 10 kt
Görüş mesafesi 10 km veya daha fazla
1500 m altında bulut yok ve kümülonimbus yok
Olasılık 30%
ayın 25'si saat 07 UTC'den ayın 25'si saat 11 UTC'ye kadar
Görüş mesafesi: 3000 m
Pus
Dönüşüyor
ayın 25'si saat 11 UTC'den ayın 25'si saat 13 UTC'ye kadar
Rüzgar güneydan 15 kt
Dönüşüyor
ayın 25'si saat 16 UTC'den ayın 25'si saat 18 UTC'ye kadar
Rüzgar doğu/güneydoğudan 10 kt
Dönüşüyor
ayın 26'si saat 01 UTC'den ayın 26'si saat 03 UTC'ye kadar
Rüzgar batı/güneybatıdan 15 kt
Görüş mesafesi 10 km veya daha fazla
1500 m altında bulut yok ve kümülonimbus yok
Dönüşüyor
ayın 25'si saat 09 UTC'den ayın 25'si saat 12 UTC'ye kadar
Rüzgar güneybatıdan 10 kt
Dönüşüyor
ayın 25'si saat 23 UTC'den ayın 26'si saat 02 UTC'ye kadar
Rüzgar değişken yönden 3 kt

TAF: SAZM 250500Z 2506/2606 23010KT CAVOK TX21/2519Z TN12/2510Z PROB30 2507/2511 3000 BR NSC BECMG 2511/2513 18015KT BECMG 2516/2518 11010KT BECMG 2601/2603 25010KT 9999 SCT020 SCT035 SAZN 250500Z 2506/2606 25015KT CAVOK TX27/2519Z TN13/2510Z BECMG 2509/2512 23010KT BECMG 2523/2602 VRB03KT

4.000'den fazla havaalanı için hava durumu gözlemleri ve tahminleri (METAR ve TAF raporları).

Kullanılabilir istasyonlar harita üzerinde sarı ve kırmızı noktalarla gösterilir.

İstasyonun adını görmek için fareyi noktanın üzerinde gezdirin.

Sonrasında hava gözlem ve tahminlerini görmek için tıklayın.

Haritayı değiştirmek için: yaklaştırmak için siyah artı işaretli yeşil düğmeye ve uzaklaştırmak için de eksi işaretli düğmeye hızla tıklayın; bitişik haritalar için yeşil okları kullanın.


METAR-TAF: